Flight Track Log - Related Links

Times and Time Zones

All times are in EDT time to prevent confusion due to time zone crossing. See the OPT429 flight status page for this flight to view local times or setup timezone preferences in your user account.

Time Position Orientation Groundspeed Altitude Reporting Facility
EDT Latitude Longitude Course Direction KTS MPH feet Rate Location/Type
Thu 04:23:51 PM 41.5503 -81.5072 292° West 239 275 2,000  Level Cleveland Center
Thu 04:25:10 PM 41.5714 -81.5778 292° West 173 199 5,100 2,329 Climbing Cleveland Center
Thu 04:26:23 PM 41.5486 -81.6664 251° West 249 287 7,900 2,463 Climbing Cleveland Center
Thu 04:27:24 PM 41.5203 -81.7708 250° West 294 338 10,600 1,974 Climbing Cleveland Center
Thu 04:31:33 PM 41.3939 -82.2428 246° West 321 369 18,100 1,949 Climbing Cleveland Center
Thu 04:32:35 PM 41.4119 -82.3528 282° West 299 344 20,700 2,141 Climbing Cleveland Center
Thu 04:34:38 PM 41.4508 -82.5825 283° West 317 365 24,700 1,287 Climbing Cleveland Center
Thu 04:36:42 PM 41.4933 -82.8394 288° West 368 423 26,000 315 Climbing Cleveland Center
Thu 04:38:46 PM 41.5453 -83.1519 282° West 397 457 26,000  Level Cleveland Center
Thu 04:39:47 PM 41.5700 -83.3014 283° West 397 457 26,000  Level Cleveland Center
Thu 04:40:49 PM 41.5939 -83.4467 282° West 397 457 26,000 -645 Level Cleveland Center
Thu 04:43:58 PM 41.6683 -83.8903 283° West 393 452 23,300 -899 Descending Chicago Center
Thu 04:44:56 PM 41.6900 -84.0197 283° West 393 452 22,300 -1,323 Descending Cleveland Center
Thu 04:47:04 PM 41.7392 -84.3033 283° West 378 435 19,200 -1,484 Descending Chicago Center
Thu 04:48:06 PM 41.7664 -84.4636 283° West 369 425 17,600 -1,525 Descending Chicago Center
Thu 04:49:02 PM 41.7842 -84.5717 282° West 370 426 16,200 -1,220 Descending Cleveland Center
Thu 04:50:04 PM 41.8053 -84.7014 282° West 362 417 15,200 -1,366 Descending Cleveland Center
Thu 04:51:05 PM 41.8314 -84.8553 283° West 360 414 13,400 -1,500 Descending Cleveland Center
Thu 04:53:00 PM 41.8681 -85.0869 282° West 309 356 10,800 -1,318 Descending Chicago Center
Thu 04:53:17 PM 41.8736 -85.1122 286° West 317 365 10,500 -1,139 Descending Chicago Center
Thu 04:54:19 PM 41.8903 -85.2147 282° West 292 336 9,300 -1,113 Descending Chicago Center
Thu 04:55:21 PM 41.9056 -85.3128 282° West 278 320 8,200 -1,034 Descending Chicago Center
Thu 04:58:17 PM 41.9519 -85.5983 282° West 263 303 5,200 -1,003 Descending Cleveland Center
Thu 05:00:20 PM 41.9789 -85.7772 282° West 243 280 3,200 -537 Descending Cleveland Center
Thu 05:02:23 PM 41.9931 -85.9258 277° West 197 227 3,000 -98 Descending Cleveland Center
Thu 05:04:00 PM 41.9833 -86.1167 270° West  Level FlightAware Approximate
Thu 05:11:00 PM 41.9929 -86.1283 270° West  Level Estimated
Thu 05:12:00 PM 41.9929 -86.1283 270° West  Level Estimated
Thu 05:13:00 PM 41.9929 -86.1283 270° West  Level Estimated
Thu 05:14:00 PM 41.9929 -86.1283 270° West  Level Estimated
Thu 05:15:00 PM 41.9929 -86.1283 270° West  Level Estimated
Thu 05:16:00 PM 41.9929 -86.1283 270° West  Level Estimated
Thu 05:17:00 PM 41.9929 -86.1283 270° West  Level Estimated
Thu 05:18:00 PM 41.9929 -86.1283 270° West  Level Estimated
Thu 05:19:00 PM 41.9929 -86.1283 270° West  Level Estimated
Thu 05:20:00 PM 41.9929 -86.1283 270° West  Level Estimated

Login

Don't have an account? Register now (free) for customized features, flight alerts, and more!